createdAt,value
2018-01-02T00:00:05.149Z,20.85
2018-01-02T00:01:05.127Z,20.80
2018-01-02T00:02:05.104Z,20.75
2018-01-02T00:03:05.082Z,20.80
2018-01-02T00:04:05.059Z,20.75
2018-01-02T00:05:05.037Z,20.77
2018-01-02T00:06:05.014Z,20.78
2018-01-02T00:07:04.992Z,20.77
2018-01-02T00:08:04.968Z,20.80
2018-01-02T00:09:04.946Z,20.81
2018-01-02T00:10:04.925Z,20.77
2018-01-02T00:11:04.903Z,20.75
2018-01-02T00:12:04.880Z,20.72
2018-01-02T00:13:04.856Z,20.72
2018-01-02T00:14:04.834Z,20.75
2018-01-02T00:15:04.811Z,20.70
2018-01-02T00:16:04.788Z,20.75
2018-01-02T00:17:04.768Z,20.62
2018-01-02T00:18:04.747Z,20.62
2018-01-02T00:19:04.722Z,20.78
2018-01-02T00:20:04.697Z,20.63
2018-01-02T00:21:04.676Z,20.77
2018-01-02T00:22:04.655Z,20.75
2018-01-02T00:23:04.632Z,20.75
2018-01-02T00:24:04.609Z,20.67
2018-01-02T00:25:04.587Z,20.69
2018-01-02T00:26:04.565Z,20.66
2018-01-02T00:27:04.542Z,20.66
2018-01-02T00:28:04.522Z,20.66
2018-01-02T00:29:04.496Z,20.69
2018-01-02T00:30:04.473Z,20.74
2018-01-02T00:31:04.452Z,20.69
2018-01-02T00:32:04.428Z,20.69
2018-01-02T00:33:04.409Z,20.55
2018-01-02T00:34:04.384Z,20.58
2018-01-02T00:35:04.362Z,20.58
2018-01-02T00:36:04.339Z,20.69
2018-01-02T00:37:04.317Z,20.58
2018-01-02T00:38:04.295Z,20.55
2018-01-02T00:39:04.274Z,20.56
2018-01-02T00:40:04.249Z,20.59
2018-01-02T00:41:04.227Z,20.62
2018-01-02T00:42:04.205Z,20.56
2018-01-02T00:43:04.183Z,20.62
2018-01-02T00:44:04.158Z,20.59
2018-01-02T00:45:04.137Z,20.62
2018-01-02T00:46:04.114Z,20.56
2018-01-02T00:47:04.092Z,20.58
2018-01-02T00:48:04.069Z,20.59
2018-01-02T00:49:04.047Z,20.62
2018-01-02T00:50:04.024Z,20.60
2018-01-02T00:51:04.002Z,20.47
2018-01-02T00:52:03.978Z,20.55
2018-01-02T00:53:03.955Z,20.59
2018-01-02T00:54:03.934Z,20.48
2018-01-02T00:55:03.912Z,20.56
2018-01-02T00:56:03.888Z,20.62
2018-01-02T00:57:03.866Z,20.62
2018-01-02T00:58:03.843Z,20.50
2018-01-02T00:59:03.822Z,20.50
2018-01-02T01:00:03.797Z,20.52
2018-01-02T01:01:03.776Z,20.50
2018-01-02T01:02:03.753Z,20.55
2018-01-02T01:03:03.733Z,20.51
2018-01-02T01:04:03.708Z,20.51
2018-01-02T01:05:03.686Z,20.52
2018-01-02T01:06:03.663Z,20.52
2018-01-02T01:07:03.641Z,20.52
2018-01-02T01:08:03.618Z,20.47
2018-01-02T01:09:03.596Z,20.41
2018-01-02T01:10:03.576Z,20.50
2018-01-02T01:11:03.551Z,20.48
2018-01-02T01:12:03.536Z,20.44
2018-01-02T01:13:03.506Z,20.52
2018-01-02T01:14:03.484Z,20.39
2018-01-02T01:15:03.461Z,20.44
2018-01-02T01:16:03.438Z,20.44
2018-01-02T01:17:03.415Z,20.52
2018-01-02T01:18:03.399Z,20.44
2018-01-02T01:19:03.371Z,20.41
2018-01-02T01:20:03.347Z,20.41
2018-01-02T01:21:03.325Z,20.39
2018-01-02T01:22:03.303Z,20.41
2018-01-02T01:23:03.281Z,20.41
2018-01-02T01:24:03.257Z,20.40
2018-01-02T01:25:03.235Z,20.37
2018-01-02T01:26:03.214Z,20.43
2018-01-02T01:27:03.190Z,20.40
2018-01-02T01:28:03.167Z,20.40
2018-01-02T01:29:03.144Z,20.37
2018-01-02T01:30:03.122Z,20.40
2018-01-02T01:31:03.102Z,20.40
2018-01-02T01:32:03.076Z,20.36
2018-01-02T01:33:03.054Z,20.37
2018-01-02T01:34:03.032Z,20.39
2018-01-02T01:35:03.010Z,20.32
2018-01-02T01:36:02.987Z,20.36
2018-01-02T01:37:02.964Z,20.34
2018-01-02T01:38:02.941Z,20.36
2018-01-02T01:39:02.919Z,20.32
2018-01-02T01:40:02.897Z,20.31
2018-01-02T01:41:02.873Z,20.31
2018-01-02T01:42:02.850Z,20.37
2018-01-02T01:43:02.828Z,20.32
2018-01-02T01:44:02.805Z,20.37
2018-01-02T01:45:02.782Z,20.34
2018-01-02T01:46:02.760Z,20.26
2018-01-02T01:47:02.737Z,20.32
2018-01-02T01:48:02.715Z,20.34
2018-01-02T01:49:02.692Z,20.25
2018-01-02T01:50:02.670Z,20.25
2018-01-02T01:51:02.648Z,20.25
2018-01-02T01:52:02.629Z,20.25
2018-01-02T01:53:02.601Z,20.24
2018-01-02T01:54:02.579Z,20.28
2018-01-02T01:55:02.556Z,20.28
2018-01-02T01:56:02.533Z,20.25
2018-01-02T01:57:02.511Z,20.26
2018-01-02T01:58:02.491Z,20.24
2018-01-02T01:59:02.466Z,20.22
2018-01-02T02:00:02.442Z,20.26
2018-01-02T02:01:02.420Z,20.25
2018-01-02T02:02:02.398Z,20.24
2018-01-02T02:03:02.376Z,20.29
2018-01-02T02:04:02.352Z,20.24
2018-01-02T02:05:02.330Z,20.26
2018-01-02T02:06:02.307Z,20.24
2018-01-02T02:07:02.285Z,20.25
2018-01-02T02:08:02.262Z,20.22
2018-01-02T02:09:02.239Z,20.26
2018-01-02T02:10:02.217Z,20.25
2018-01-02T02:11:02.194Z,20.22
2018-01-02T02:12:02.171Z,20.26
2018-01-02T02:13:02.148Z,20.21
2018-01-02T02:14:02.126Z,20.21
2018-01-02T02:15:02.104Z,20.28
2018-01-02T02:16:02.080Z,20.22
2018-01-02T02:17:02.057Z,20.22
2018-01-02T02:18:02.035Z,20.22
2018-01-02T02:19:02.013Z,20.28
2018-01-02T02:20:01.989Z,20.25
2018-01-02T02:21:01.967Z,20.22
2018-01-02T02:22:01.944Z,20.22
2018-01-02T02:23:01.923Z,20.22
2018-01-02T02:24:01.899Z,20.26
2018-01-02T02:25:01.876Z,20.26
2018-01-02T02:26:01.853Z,20.21
2018-01-02T02:27:01.832Z,20.24
2018-01-02T02:28:01.808Z,20.21
2018-01-02T02:29:01.784Z,20.21
2018-01-02T02:30:01.763Z,20.25
2018-01-02T02:31:01.740Z,20.18
2018-01-02T02:32:01.716Z,20.18
2018-01-02T02:33:01.695Z,20.13
2018-01-02T02:34:01.672Z,20.22
2018-01-02T02:35:01.650Z,20.16
2018-01-02T02:36:01.626Z,20.24
2018-01-02T02:37:01.602Z,20.14
2018-01-02T02:38:01.581Z,20.19
2018-01-02T02:39:01.559Z,20.18
2018-01-02T02:40:01.535Z,20.24
2018-01-02T02:41:01.513Z,20.13
2018-01-02T02:42:01.490Z,20.14
2018-01-02T02:43:01.468Z,20.18
2018-01-02T02:44:01.444Z,20.11
2018-01-02T02:45:01.421Z,20.18
2018-01-02T02:46:01.399Z,20.18
2018-01-02T02:47:01.380Z,20.04
2018-01-02T02:48:01.353Z,20.07
2018-01-02T02:49:01.329Z,20.09
2018-01-02T02:50:01.308Z,20.06
2018-01-02T02:51:01.285Z,20.10
2018-01-02T02:52:01.262Z,20.06
2018-01-02T02:53:01.239Z,20.04
2018-01-02T02:54:01.216Z,20.07
2018-01-02T02:55:01.194Z,20.11
2018-01-02T02:56:01.172Z,20.04
2018-01-02T02:57:01.149Z,20.06
2018-01-02T02:58:01.126Z,20.09
2018-01-02T02:59:01.103Z,20.06
2018-01-02T03:00:01.080Z,20.10
2018-01-02T03:01:01.057Z,20.07
2018-01-02T03:02:01.035Z,20.09
2018-01-02T03:03:01.013Z,20.07
2018-01-02T03:04:00.988Z,20.07
2018-01-02T03:05:00.966Z,20.07
2018-01-02T03:06:00.944Z,20.06
2018-01-02T03:07:00.921Z,20.07
2018-01-02T03:08:00.898Z,20.10
2018-01-02T03:09:00.875Z,20.06
2018-01-02T03:10:00.852Z,20.04
2018-01-02T03:11:00.830Z,20.06
2018-01-02T03:12:00.806Z,20.04
2018-01-02T03:13:00.784Z,20.04
2018-01-02T03:14:00.761Z,20.09
2018-01-02T03:15:00.739Z,20.04
2018-01-02T03:16:00.716Z,20.09
2018-01-02T03:17:00.693Z,20.03
2018-01-02T03:18:00.670Z,19.94
2018-01-02T03:19:00.647Z,20.04
2018-01-02T03:20:00.624Z,19.96
2018-01-02T03:21:00.601Z,19.94
2018-01-02T03:22:00.579Z,20.06
2018-01-02T03:23:00.557Z,20.09
2018-01-02T03:24:00.533Z,20.06
2018-01-02T03:25:00.510Z,19.91
2018-01-02T03:26:00.488Z,19.92
2018-01-02T03:27:00.465Z,19.95
2018-01-02T03:28:00.442Z,19.96
2018-01-02T03:29:00.420Z,19.96
2018-01-02T03:30:00.398Z,20.04
2018-01-02T03:31:00.375Z,19.95
2018-01-02T03:32:00.350Z,19.99
2018-01-02T03:33:00.328Z,20.04
2018-01-02T03:34:00.305Z,19.99
2018-01-02T03:35:00.283Z,19.96
2018-01-02T03:36:00.259Z,19.94
2018-01-02T03:37:00.237Z,20.06
2018-01-02T03:38:00.213Z,20.06
2018-01-02T03:39:00.191Z,20.06
2018-01-02T03:40:00.168Z,20.06
2018-01-02T03:41:00.145Z,20.04
2018-01-02T03:42:00.123Z,20.03
2018-01-02T03:43:00.100Z,20.06
2018-01-02T03:44:00.078Z,20.09
2018-01-02T03:45:00.068Z,20.18
2018-01-02T03:46:00.032Z,20.24
2018-01-02T03:47:00.011Z,20.22
2018-01-02T03:47:59.985Z,20.34
2018-01-02T03:48:59.961Z,20.41
2018-01-02T03:49:59.940Z,20.48
2018-01-02T03:50:59.917Z,20.44
2018-01-02T03:51:59.892Z,20.60
2018-01-02T03:52:59.871Z,20.67
2018-01-02T03:53:59.847Z,20.74
2018-01-02T03:54:59.825Z,20.77
2018-01-02T03:55:59.801Z,20.90
2018-01-02T03:56:59.778Z,20.97
2018-01-02T03:57:59.756Z,21.03
2018-01-02T03:58:59.733Z,21.11
2018-01-02T03:59:59.709Z,21.24
2018-01-02T04:00:59.686Z,21.33
2018-01-02T04:01:59.664Z,21.37
2018-01-02T04:02:59.641Z,21.45
2018-01-02T04:03:59.617Z,21.57
2018-01-02T04:04:59.594Z,21.64
2018-01-02T04:05:59.571Z,21.82
2018-01-02T04:06:59.549Z,21.85
2018-01-02T04:07:59.524Z,21.80
2018-01-02T04:08:59.502Z,21.92
2018-01-02T04:09:59.479Z,21.98
2018-01-02T04:10:59.456Z,21.99
2018-01-02T04:11:59.432Z,21.95
2018-01-02T04:12:59.409Z,22.06
2018-01-02T04:13:59.387Z,22.11
2018-01-02T04:14:59.367Z,22.02
2018-01-02T04:15:59.342Z,22.13
2018-01-02T04:16:59.319Z,22.08
2018-01-02T04:17:59.295Z,22.07
2018-01-02T04:18:59.274Z,22.06
2018-01-02T04:19:59.250Z,22.08
2018-01-02T04:20:59.227Z,22.15
2018-01-02T04:21:59.205Z,22.10
2018-01-02T04:22:59.181Z,22.11
2018-01-02T04:23:59.159Z,22.13
2018-01-02T04:24:59.136Z,22.06
2018-01-02T04:25:59.113Z,22.00
2018-01-02T04:26:59.091Z,22.02
2018-01-02T04:27:59.067Z,21.91
2018-01-02T04:28:59.045Z,21.96
2018-01-02T04:29:59.022Z,21.92
2018-01-02T04:30:59.000Z,21.89
2018-01-02T04:31:58.982Z,21.89
2018-01-02T04:32:58.954Z,21.76
2018-01-02T04:33:58.932Z,21.80
2018-01-02T04:34:58.909Z,21.82
2018-01-02T04:35:58.886Z,21.69
2018-01-02T04:36:58.863Z,21.67
2018-01-02T04:37:58.841Z,21.67
2018-01-02T04:38:58.818Z,21.67
2018-01-02T04:39:58.795Z,21.66
2018-01-02T04:40:58.773Z,21.64
2018-01-02T04:41:58.751Z,21.61
2018-01-02T04:42:58.728Z,21.55
2018-01-02T04:43:58.704Z,21.52
2018-01-02T04:44:58.682Z,21.48
2018-01-02T04:45:58.668Z,21.51
2018-01-02T04:46:58.638Z,21.42
2018-01-02T04:47:58.614Z,21.36
2018-01-02T04:48:58.596Z,21.36
2018-01-02T04:49:58.570Z,21.33
2018-01-02T04:50:58.548Z,21.32
2018-01-02T04:51:58.524Z,21.33
2018-01-02T04:52:58.501Z,21.30
2018-01-02T04:53:58.480Z,21.29
2018-01-02T04:54:58.458Z,21.17
2018-01-02T04:55:58.434Z,21.20
2018-01-02T04:56:58.412Z,21.12
2018-01-02T04:57:58.389Z,21.21
2018-01-02T04:58:58.367Z,21.17
2018-01-02T04:59:58.344Z,21.17
2018-01-02T05:00:58.321Z,21.12
2018-01-02T05:01:58.300Z,21.07
2018-01-02T05:02:58.277Z,21.06
2018-01-02T05:03:58.253Z,21.00
2018-01-02T05:04:58.231Z,21.02
2018-01-02T05:05:58.209Z,21.02
2018-01-02T05:06:58.186Z,21.06
2018-01-02T05:07:58.166Z,20.96
2018-01-02T05:08:58.141Z,21.00
2018-01-02T05:09:58.121Z,20.99
2018-01-02T05:10:58.096Z,21.05
2018-01-02T05:11:58.073Z,21.02
2018-01-02T05:12:58.052Z,21.06
2018-01-02T05:13:58.030Z,21.05
2018-01-02T05:14:58.006Z,21.09
2018-01-02T05:15:57.981Z,21.17
2018-01-02T05:16:57.959Z,21.18
2018-01-02T05:17:57.938Z,21.20
2018-01-02T05:18:57.915Z,21.29
2018-01-02T05:19:57.891Z,21.35
2018-01-02T05:20:57.869Z,21.32
2018-01-02T05:21:57.847Z,21.35
2018-01-02T05:22:57.836Z,21.33
2018-01-02T05:23:57.800Z,21.39
2018-01-02T05:24:57.777Z,21.51
2018-01-02T05:25:57.756Z,21.54
2018-01-02T05:26:57.734Z,21.46
2018-01-02T05:27:57.709Z,21.52
2018-01-02T05:28:57.686Z,21.60
2018-01-02T05:29:57.664Z,21.54
2018-01-02T05:30:57.642Z,21.52
2018-01-02T05:31:57.618Z,21.54
2018-01-02T05:32:57.595Z,21.58
2018-01-02T05:33:57.573Z,21.55
2018-01-02T05:34:57.550Z,21.55
2018-01-02T05:35:57.530Z,21.58
2018-01-02T05:36:57.504Z,21.55
2018-01-02T05:37:57.482Z,21.52
2018-01-02T05:38:57.460Z,21.54
2018-01-02T05:39:57.436Z,21.57
2018-01-02T05:40:57.413Z,21.58
2018-01-02T05:41:57.391Z,21.62
2018-01-02T05:42:57.368Z,21.62
2018-01-02T05:43:57.345Z,21.60
2018-01-02T05:44:57.323Z,21.60
2018-01-02T05:45:57.300Z,21.55
2018-01-02T05:46:57.277Z,21.58
2018-01-02T05:47:57.254Z,21.60
2018-01-02T05:48:57.232Z,21.52
2018-01-02T05:49:57.209Z,21.52
2018-01-02T05:50:57.186Z,21.43
2018-01-02T05:51:57.163Z,21.51
2018-01-02T05:52:57.147Z,21.52
2018-01-02T05:53:57.119Z,21.50
2018-01-02T05:54:57.102Z,21.52
2018-01-02T05:55:57.072Z,21.51
2018-01-02T05:56:57.050Z,21.50
2018-01-02T05:57:57.027Z,21.50
2018-01-02T05:58:57.005Z,21.50
2018-01-02T05:59:56.981Z,21.46
2018-01-02T06:00:56.959Z,21.40
2018-01-02T06:01:56.936Z,21.37
2018-01-02T06:02:56.914Z,21.36
2018-01-02T06:03:56.890Z,21.36
2018-01-02T06:04:56.867Z,21.40
2018-01-02T06:05:56.845Z,21.32
2018-01-02T06:06:56.823Z,21.40
2018-01-02T06:07:56.799Z,21.29
2018-01-02T06:08:56.776Z,21.33
2018-01-02T06:09:56.754Z,21.37
2018-01-02T06:10:56.731Z,21.35
2018-01-02T06:11:56.708Z,21.33
2018-01-02T06:12:56.687Z,21.32
2018-01-02T06:13:56.662Z,21.22
2018-01-02T06:14:56.640Z,21.32
2018-01-02T06:15:56.616Z,21.27
2018-01-02T06:16:56.600Z,21.33
2018-01-02T06:17:56.571Z,21.35
2018-01-02T06:18:56.549Z,21.22
2018-01-02T06:19:56.525Z,21.29
2018-01-02T06:20:56.503Z,21.24
2018-01-02T06:21:56.481Z,21.24
2018-01-02T06:22:56.458Z,21.17
2018-01-02T06:23:56.434Z,21.12
2018-01-02T06:24:56.412Z,21.15
2018-01-02T06:25:56.389Z,21.15
2018-01-02T06:26:56.367Z,21.18
2018-01-02T06:27:56.343Z,21.12
2018-01-02T06:28:56.323Z,21.15
2018-01-02T06:29:56.298Z,21.21
2018-01-02T06:30:56.276Z,21.14
2018-01-02T06:31:56.252Z,21.18
2018-01-02T06:32:56.230Z,21.15
2018-01-02T06:33:56.208Z,21.22
2018-01-02T06:34:56.186Z,21.18
2018-01-02T06:35:56.162Z,21.14
2018-01-02T06:36:56.170Z,21.14
2018-01-02T06:37:56.117Z,21.15
2018-01-02T06:38:56.094Z,21.15
2018-01-02T06:39:56.071Z,21.11
2018-01-02T06:40:56.048Z,21.15
2018-01-02T06:41:56.026Z,21.14
2018-01-02T06:42:56.004Z,21.11
2018-01-02T06:43:55.980Z,21.07
2018-01-02T06:44:55.958Z,21.11
2018-01-02T06:45:55.936Z,21.09
2018-01-02T06:46:55.912Z,21.07
2018-01-02T06:47:55.889Z,21.05
2018-01-02T06:48:55.866Z,21.07
2018-01-02T06:49:55.848Z,21.11
2018-01-02T06:50:55.822Z,21.05
2018-01-02T06:51:55.799Z,21.15
2018-01-02T06:52:55.776Z,21.11
2018-01-02T06:53:55.753Z,21.11
2018-01-02T06:54:55.732Z,21.14
2018-01-02T06:55:55.708Z,21.07
2018-01-02T06:56:55.686Z,21.11
2018-01-02T06:57:55.664Z,21.17
2018-01-02T06:58:55.641Z,21.09
2018-01-02T06:59:55.618Z,21.03
2018-01-02T07:00:55.595Z,21.03
2018-01-02T07:01:55.573Z,21.09
2018-01-02T07:02:55.551Z,21.02
2018-01-02T07:03:55.533Z,21.00
2018-01-02T07:04:55.508Z,21.05
2018-01-02T07:05:55.482Z,21.03
2018-01-02T07:06:55.460Z,21.03
2018-01-02T07:07:55.435Z,21.05
2018-01-02T07:08:55.414Z,21.02
2018-01-02T07:09:55.391Z,21.05
2018-01-02T07:10:55.369Z,21.05
2018-01-02T07:11:55.346Z,21.03
2018-01-02T07:12:55.323Z,21.05
2018-01-02T07:13:55.306Z,21.05
2018-01-02T07:14:55.280Z,21.06
2018-01-02T07:15:55.256Z,21.03
2018-01-02T07:16:55.232Z,21.03
2018-01-02T07:17:55.211Z,21.02
2018-01-02T07:18:55.186Z,21.03
2018-01-02T07:19:55.163Z,21.05
2018-01-02T07:20:55.141Z,20.97
2018-01-02T07:21:55.118Z,21.03
2018-01-02T07:22:55.096Z,21.02
2018-01-02T07:23:55.072Z,21.02
2018-01-02T07:24:55.050Z,21.02
2018-01-02T07:25:55.027Z,21.14
2018-01-02T07:26:55.005Z,21.06
2018-01-02T07:27:54.982Z,21.09
2018-01-02T07:28:54.957Z,21.03
2018-01-02T07:29:54.935Z,21.02
2018-01-02T07:30:54.914Z,21.03
2018-01-02T07:31:54.894Z,21.00
2018-01-02T07:32:54.868Z,21.07
2018-01-02T07:33:54.846Z,21.07
2018-01-02T07:34:54.823Z,21.03
2018-01-02T07:35:54.800Z,21.05
2018-01-02T07:36:54.778Z,21.05
2018-01-02T07:37:54.755Z,21.03
2018-01-02T07:38:54.733Z,21.06
2018-01-02T07:39:54.709Z,21.05
2018-01-02T07:40:54.747Z,21.07
2018-01-02T07:41:54.665Z,21.03
2018-01-02T07:42:54.642Z,21.11
2018-01-02T07:43:54.618Z,21.03
2018-01-02T07:44:54.596Z,21.03
2018-01-02T07:45:54.574Z,21.09
2018-01-02T07:46:54.551Z,21.09
2018-01-02T07:47:54.528Z,21.11
2018-01-02T07:48:54.505Z,21.09
2018-01-02T07:49:54.483Z,21.11
2018-01-02T07:50:54.460Z,21.05
2018-01-02T07:51:54.437Z,21.05
2018-01-02T07:52:54.415Z,20.96
2018-01-02T07:53:54.392Z,21.09
2018-01-02T07:54:54.369Z,21.11
2018-01-02T07:55:54.346Z,21.15
2018-01-02T07:56:54.324Z,21.12
2018-01-02T07:57:54.302Z,21.12
2018-01-02T07:58:54.279Z,21.12
2018-01-02T07:59:54.256Z,21.09
2018-01-02T08:00:54.233Z,21.12
2018-01-02T08:01:54.209Z,21.07
2018-01-02T08:02:54.188Z,21.14
2018-01-02T08:03:54.167Z,21.14
2018-01-02T08:04:54.143Z,21.07
2018-01-02T08:05:54.120Z,21.09
2018-01-02T08:06:54.099Z,21.15
2018-01-02T08:07:54.074Z,21.12
2018-01-02T08:08:54.052Z,21.17
2018-01-02T08:09:54.030Z,21.03
2018-01-02T08:10:54.007Z,21.15
2018-01-02T08:11:53.983Z,21.17
2018-01-02T08:12:53.961Z,21.14
2018-01-02T08:13:53.938Z,21.09
2018-01-02T08:14:53.916Z,21.17
2018-01-02T08:15:53.893Z,21.09
2018-01-02T08:16:53.869Z,21.17
2018-01-02T08:17:53.847Z,21.12
2018-01-02T08:18:53.825Z,21.17
2018-01-02T08:19:53.803Z,21.14
2018-01-02T08:20:53.780Z,21.18
2018-01-02T08:21:53.757Z,21.18
2018-01-02T08:22:53.735Z,21.15
2018-01-02T08:23:53.712Z,21.14
2018-01-02T08:24:53.689Z,21.17
2018-01-02T08:25:53.667Z,21.17
2018-01-02T08:26:53.644Z,21.11
2018-01-02T08:27:53.621Z,21.18
2018-01-02T08:28:53.599Z,21.06
2018-01-02T08:29:53.576Z,21.14
2018-01-02T08:30:53.554Z,21.15
2018-01-02T08:31:53.531Z,21.15
2018-01-02T08:32:53.508Z,21.15
2018-01-02T08:33:53.486Z,21.07
2018-01-02T08:34:53.464Z,21.12
2018-01-02T08:35:53.440Z,21.24
2018-01-02T08:36:53.418Z,21.18
2018-01-02T08:37:53.395Z,21.12
2018-01-02T08:38:53.372Z,21.17
2018-01-02T08:39:53.350Z,21.20
2018-01-02T08:40:53.327Z,21.09
2018-01-02T08:41:53.305Z,21.15
2018-01-02T08:42:53.282Z,21.17
2018-01-02T08:43:53.260Z,21.21
2018-01-02T08:44:53.237Z,21.20
2018-01-02T08:45:53.214Z,21.17
2018-01-02T08:46:53.192Z,21.22
2018-01-02T08:47:53.168Z,21.14
2018-01-02T08:48:53.146Z,21.11
2018-01-02T08:49:53.124Z,21.27
2018-01-02T08:50:53.101Z,21.27
2018-01-02T08:51:53.077Z,21.20
2018-01-02T08:52:53.056Z,21.25
2018-01-02T08:53:53.033Z,21.24
2018-01-02T08:54:53.010Z,21.20
2018-01-02T08:55:52.987Z,21.22
2018-01-02T08:56:52.964Z,21.15
2018-01-02T08:57:52.942Z,21.18
2018-01-02T08:58:52.920Z,21.22
2018-01-02T08:59:52.897Z,21.21
2018-01-02T09:00:52.876Z,21.18
2018-01-02T09:01:52.852Z,21.18
2018-01-02T09:02:52.829Z,21.27
2018-01-02T09:03:52.805Z,21.14
2018-01-02T09:04:52.784Z,21.20
2018-01-02T09:05:52.812Z,21.25
2018-01-02T09:06:52.740Z,21.27
2018-01-02T09:07:52.715Z,21.20
2018-01-02T09:08:52.695Z,21.29
2018-01-02T09:09:52.671Z,21.25
2018-01-02T09:10:52.648Z,21.33
2018-01-02T09:11:52.625Z,21.32
2018-01-02T09:12:52.603Z,21.17
2018-01-02T09:13:52.581Z,21.24
2018-01-02T09:14:52.558Z,21.29
2018-01-02T09:15:52.535Z,21.27
2018-01-02T09:16:52.513Z,21.29
2018-01-02T09:17:52.490Z,21.36
2018-01-02T09:18:52.468Z,21.29
2018-01-02T09:19:52.444Z,21.32
2018-01-02T09:20:52.424Z,21.35
2018-01-02T09:21:52.400Z,21.36
2018-01-02T09:22:52.378Z,21.30
2018-01-02T09:23:52.354Z,21.27
2018-01-02T09:24:52.332Z,21.33
2018-01-02T09:25:52.310Z,21.30
2018-01-02T09:26:52.288Z,21.37
2018-01-02T09:27:52.264Z,21.33
2018-01-02T09:28:52.242Z,21.33
2018-01-02T09:29:52.220Z,21.39
2018-01-02T09:30:52.198Z,21.36
2018-01-02T09:31:52.175Z,21.45
2018-01-02T09:32:52.153Z,21.40
2018-01-02T09:33:52.130Z,21.42
2018-01-02T09:34:52.108Z,21.43
2018-01-02T09:35:52.085Z,21.40
2018-01-02T09:36:52.063Z,21.37
2018-01-02T09:37:52.041Z,21.36
2018-01-02T09:38:52.019Z,21.40
2018-01-02T09:39:51.997Z,21.45
2018-01-02T09:40:51.973Z,21.40
2018-01-02T09:41:51.951Z,21.45
2018-01-02T09:42:51.929Z,21.40
2018-01-02T09:43:51.915Z,21.43
2018-01-02T09:44:51.884Z,21.37
2018-01-02T09:45:51.862Z,21.40
2018-01-02T09:46:51.840Z,21.39
2018-01-02T09:47:51.817Z,21.40
2018-01-02T09:48:51.794Z,21.45
2018-01-02T09:49:51.772Z,21.32
2018-01-02T09:50:51.750Z,21.39
2018-01-02T09:51:51.727Z,21.40
2018-01-02T09:52:51.705Z,21.40
2018-01-02T09:53:51.685Z,21.42
2018-01-02T09:54:51.661Z,21.39
2018-01-02T09:55:51.637Z,21.39
2018-01-02T09:56:51.615Z,21.37
2018-01-02T09:57:51.592Z,21.33
2018-01-02T09:58:51.571Z,21.40
2018-01-02T09:59:51.551Z,21.43
2018-01-02T10:00:51.526Z,21.40
2018-01-02T10:01:51.504Z,21.40
2018-01-02T10:02:51.482Z,21.42
2018-01-02T10:03:51.459Z,21.40
2018-01-02T10:04:51.451Z,21.46
2018-01-02T10:05:51.414Z,21.37
2018-01-02T10:06:51.392Z,21.45
2018-01-02T10:07:51.399Z,21.43
2018-01-02T10:08:51.347Z,21.61
2018-01-02T10:09:51.325Z,21.69
2018-01-02T10:10:51.303Z,21.69
2018-01-02T10:11:51.281Z,21.67
2018-01-02T10:12:51.258Z,21.67
2018-01-02T10:13:51.237Z,21.67
2018-01-02T10:14:51.214Z,21.73
2018-01-02T10:15:51.192Z,21.70
2018-01-02T10:16:51.169Z,21.82
2018-01-02T10:17:51.147Z,21.76
2018-01-02T10:18:51.126Z,21.75
2018-01-02T10:19:51.105Z,21.79
2018-01-02T10:20:51.081Z,21.70
2018-01-02T10:21:51.062Z,21.77
2018-01-02T10:22:51.038Z,21.69
2018-01-02T10:23:51.014Z,21.73
2018-01-02T10:24:50.991Z,21.70
2018-01-02T10:25:50.971Z,21.69
2018-01-02T10:26:50.948Z,21.69
2018-01-02T10:27:50.926Z,21.75
2018-01-02T10:28:50.934Z,21.73
2018-01-02T10:29:50.883Z,21.70
2018-01-02T10:30:50.861Z,21.69
2018-01-02T10:31:50.838Z,21.69
2018-01-02T10:32:50.817Z,21.72
2018-01-02T10:33:50.794Z,21.73
2018-01-02T10:34:50.772Z,21.66
2018-01-02T10:35:50.749Z,21.66
2018-01-02T10:36:50.728Z,21.58
2018-01-02T10:37:50.705Z,21.62
2018-01-02T10:38:50.683Z,21.60
2018-01-02T10:39:50.660Z,21.61
2018-01-02T10:40:50.638Z,21.64
2018-01-02T10:41:50.617Z,21.55
2018-01-02T10:42:50.595Z,21.62
2018-01-02T10:43:50.572Z,21.51
2018-01-02T10:44:50.551Z,21.57
2018-01-02T10:45:50.528Z,21.54
2018-01-02T10:46:50.507Z,21.58
2018-01-02T10:47:50.484Z,21.62
2018-01-02T10:48:50.462Z,21.55
2018-01-02T10:49:50.440Z,21.54
2018-01-02T10:50:50.418Z,21.48
2018-01-02T10:51:50.395Z,21.45
2018-01-02T10:52:50.373Z,21.46
2018-01-02T10:53:50.351Z,21.43
2018-01-02T10:54:50.331Z,21.40
2018-01-02T10:55:50.306Z,21.48
2018-01-02T10:56:50.286Z,21.42
2018-01-02T10:57:50.263Z,21.46
2018-01-02T10:58:50.241Z,21.40
2018-01-02T10:59:50.218Z,21.48
2018-01-02T11:00:50.196Z,21.51
2018-01-02T11:01:50.174Z,21.45
2018-01-02T11:02:50.152Z,21.48
2018-01-02T11:03:50.129Z,21.43
2018-01-02T11:04:50.107Z,21.52
2018-01-02T11:05:50.086Z,21.43
2018-01-02T11:06:50.066Z,21.52
2018-01-02T11:07:50.041Z,21.40
2018-01-02T11:08:50.019Z,21.43
2018-01-02T11:09:50.020Z,21.52
2018-01-02T11:10:49.974Z,21.51
2018-01-02T11:11:49.952Z,21.48
2018-01-02T11:12:49.930Z,21.48
2018-01-02T11:13:49.909Z,21.48
2018-01-02T11:14:49.887Z,21.48
2018-01-02T11:15:49.864Z,21.48
2018-01-02T11:16:49.844Z,21.39
2018-01-02T11:17:49.820Z,21.51
2018-01-02T11:18:49.798Z,21.43
2018-01-02T11:19:49.776Z,21.43
2018-01-02T11:20:49.753Z,21.42
2018-01-02T11:21:49.731Z,21.45
2018-01-02T11:22:49.710Z,21.50
2018-01-02T11:23:49.689Z,21.50
2018-01-02T11:24:49.665Z,21.50
2018-01-02T11:25:49.643Z,21.54
2018-01-02T11:26:49.621Z,21.40
2018-01-02T11:27:49.598Z,21.48
2018-01-02T11:28:49.576Z,21.42
2018-01-02T11:29:49.554Z,21.40
2018-01-02T11:30:49.532Z,21.35
2018-01-02T11:31:49.510Z,21.43
2018-01-02T11:32:49.487Z,21.35
2018-01-02T11:33:49.465Z,21.42
2018-01-02T11:34:49.443Z,21.40
2018-01-02T11:35:49.421Z,21.48
2018-01-02T11:36:49.398Z,21.48
2018-01-02T11:37:49.376Z,21.48
2018-01-02T11:38:49.355Z,21.43
2018-01-02T11:39:49.332Z,21.51
2018-01-02T11:40:49.309Z,21.52
2018-01-02T11:41:49.288Z,21.58
2018-01-02T11:42:49.266Z,21.52
2018-01-02T11:43:49.249Z,21.45
2018-01-02T11:44:49.222Z,21.43
2018-01-02T11:45:49.199Z,21.51
2018-01-02T11:46:49.177Z,21.43
2018-01-02T11:47:49.155Z,21.46
2018-01-02T11:48:49.133Z,21.36
2018-01-02T11:49:49.111Z,21.52
2018-01-02T11:50:49.089Z,21.45
2018-01-02T11:51:49.066Z,21.46
2018-01-02T11:52:49.044Z,21.43
2018-01-02T11:53:49.026Z,21.45
2018-01-02T11:54:49.001Z,21.48
2018-01-02T11:55:48.978Z,21.46
2018-01-02T11:56:48.956Z,21.48
2018-01-02T11:57:48.934Z,21.40
2018-01-02T11:58:48.912Z,21.52
2018-01-02T11:59:48.889Z,21.48
2018-01-02T12:00:48.869Z,21.43
2018-01-02T12:01:48.847Z,21.50
2018-01-02T12:02:48.823Z,21.45
2018-01-02T12:03:48.801Z,21.40
2018-01-02T12:04:48.779Z,21.39
2018-01-02T12:05:48.757Z,21.37
2018-01-02T12:06:48.735Z,21.45
2018-01-02T12:07:48.711Z,21.37
2018-01-02T12:08:48.690Z,21.46
2018-01-02T12:09:48.668Z,21.46
2018-01-02T12:10:48.645Z,21.45
2018-01-02T12:11:48.623Z,21.45
2018-01-02T12:12:48.600Z,21.37
2018-01-02T12:13:48.578Z,21.45
2018-01-02T12:14:48.557Z,21.40
2018-01-02T12:15:48.536Z,21.50
2018-01-02T12:16:48.512Z,21.52
2018-01-02T12:17:48.490Z,21.51
2018-01-02T12:18:48.479Z,21.45
2018-01-02T12:19:48.444Z,21.37
2018-01-02T12:20:48.429Z,21.45
2018-01-02T12:21:48.402Z,21.48
2018-01-02T12:22:48.379Z,21.50
2018-01-02T12:23:48.357Z,21.58
2018-01-02T12:24:48.335Z,21.57
2018-01-02T12:25:48.313Z,21.51
2018-01-02T12:26:48.291Z,21.55
2018-01-02T12:27:48.268Z,21.57
2018-01-02T12:28:48.246Z,21.55
2018-01-02T12:29:48.225Z,21.61
2018-01-02T12:30:48.203Z,21.58
2018-01-02T12:31:48.180Z,21.58
2018-01-02T12:32:48.158Z,21.58
2018-01-02T12:33:48.137Z,21.54
2018-01-02T12:34:48.114Z,21.57
2018-01-02T12:35:48.092Z,21.58
2018-01-02T12:36:48.070Z,21.62
2018-01-02T12:37:48.048Z,21.61
2018-01-02T12:38:48.027Z,21.60
2018-01-02T12:39:48.005Z,21.67
2018-01-02T12:40:47.983Z,21.50
2018-01-02T12:41:47.960Z,21.51
2018-01-02T12:42:47.939Z,21.50
2018-01-02T12:43:47.917Z,21.52
2018-01-02T12:44:47.894Z,21.57
2018-01-02T12:45:47.873Z,21.62
2018-01-02T12:46:47.851Z,21.62
2018-01-02T12:47:47.828Z,21.55
2018-01-02T12:48:47.807Z,21.58
2018-01-02T12:49:47.784Z,21.58
2018-01-02T12:50:47.763Z,21.62
2018-01-02T12:51:47.740Z,21.67